Time;durP1;ratioP1;P1;durP2;ratioP2;P2;SDS_P1;SDS_P2;PMS_P1;PMS_P2;Temp;Humidity;BMP_temperature;BMP_pressure;BME280_temperature;BME280_humidity;BME280_pressure;Samples;Min_cycle;Max_cycle;Signal;HPM_P1;HPM_P2
2021/01/31 00:00:34;;;;;;;2.72;2.05;;;-2.70;99.90;;;;;;5042382;28;20380;-61
2021/01/31 00:03:10;;;;;;;5.30;1.37;;;-2.70;99.90;;;;;;5035380;28;20046;-61
2021/01/31 00:05:37;;;;;;;2.17;1.20;;;-2.60;99.90;;;;;;5041008;28;20041;-63
2021/01/31 00:08:07;;;;;;;2.87;0.80;;;-2.60;99.90;;;;;;5031651;28;20041;-62
2021/01/31 00:10:34;;;;;;;4.50;1.35;;;-2.50;99.90;;;;;;5039395;28;20444;-62
2021/01/31 00:13:03;;;;;;;1.23;0.85;;;-2.50;99.90;;;;;;5036284;28;20040;-62
2021/01/31 00:15:32;;;;;;;1.37;1.00;;;-2.40;99.90;;;;;;5038820;28;20062;-61
2021/01/31 00:17:58;;;;;;;3.90;1.03;;;-2.40;99.90;;;;;;5037788;28;20171;-62
2021/01/31 00:20:27;;;;;;;1.52;0.90;;;-2.30;99.90;;;;;;5035825;28;20037;-61
2021/01/31 00:22:54;;;;;;;3.23;0.83;;;-2.30;99.90;;;;;;5039372;28;20049;-63
2021/01/31 00:25:21;;;;;;;3.38;0.93;;;-2.30;99.90;;;;;;5032993;28;20068;-63
2021/01/31 00:27:48;;;;;;;2.00;0.80;;;-2.20;99.90;;;;;;5040595;28;20140;-63
2021/01/31 00:30:35;;;;;;;4.05;0.80;;;-2.10;99.90;;;;;;5035362;28;21331;-61
2021/01/31 00:33:10;;;;;;;3.63;1.00;;;-2.10;99.90;;;;;;5040618;28;20140;-63
2021/01/31 00:35:39;;;;;;;1.55;0.88;;;-2.00;99.90;;;;;;5036208;28;20049;-62
2021/01/31 00:38:11;;;;;;;1.00;0.52;;;-2.00;99.90;;;;;;5034601;28;20092;-62
2021/01/31 00:40:38;;;;;;;5.72;0.93;;;-2.00;99.90;;;;;;5034822;28;20330;-62
2021/01/31 00:43:05;;;;;;;0.88;0.88;;;-1.90;99.90;;;;;;5039220;28;20071;-61
2021/01/31 00:45:31;;;;;;;0.75;0.57;;;-1.90;99.90;;;;;;5036060;28;20475;-61
2021/01/31 00:47:58;;;;;;;1.05;0.70;;;-1.80;99.90;;;;;;5041880;28;20074;-62
2021/01/31 00:50:29;;;;;;;3.25;0.55;;;-1.80;99.90;;;;;;5037309;28;20052;-62
2021/01/31 00:53:00;;;;;;;7.50;0.75;;;-1.80;99.90;;;;;;5034278;28;20057;-61
2021/01/31 00:55:27;;;;;;;1.83;0.65;;;-1.70;99.90;;;;;;5040428;28;20080;-61
2021/01/31 00:57:54;;;;;;;3.80;0.55;;;-1.70;99.90;;;;;;5033198;28;20068;-63
2021/01/31 01:00:25;;;;;;;1.05;0.95;;;-1.70;99.90;;;;;;5036559;28;20045;-62
2021/01/31 01:02:53;;;;;;;1.42;0.75;;;-1.70;99.90;;;;;;5036601;28;20164;-64
2021/01/31 01:05:30;;;;;;;0.63;0.52;;;-1.60;99.90;;;;;;5041137;28;20563;-62
2021/01/31 01:07:57;;;;;;;1.47;0.70;;;-1.60;99.90;;;;;;5030977;28;20041;-63
2021/01/31 01:10:27;;;;;;;0.75;0.63;;;-1.60;99.90;;;;;;5038464;28;20126;-61
2021/01/31 01:12:54;;;;;;;0.80;0.60;;;-1.50;99.90;;;;;;5033397;28;20934;-62
2021/01/31 01:15:24;;;;;;;2.92;0.75;;;-1.50;99.90;;;;;;5040600;28;20076;-62
2021/01/31 01:17:51;;;;;;;0.30;0.30;;;-1.50;99.90;;;;;;5033511;28;20053;-64
2021/01/31 01:20:17;;;;;;;0.60;0.50;;;-1.50;99.90;;;;;;5036198;28;20500;-62
2021/01/31 01:22:44;;;;;;;0.40;0.32;;;-1.50;99.90;;;;;;5037034;28;20063;-63
2021/01/31 01:25:13;;;;;;;1.70;0.63;;;-1.40;99.90;;;;;;5032867;28;20865;-63
2021/01/31 01:27:40;;;;;;;1.10;0.60;;;-1.40;99.90;;;;;;5038792;28;20404;-62
2021/01/31 01:30:10;;;;;;;0.68;0.50;;;-1.40;99.90;;;;;;5034871;28;20103;-61
2021/01/31 01:32:37;;;;;;;4.82;0.63;;;-1.30;99.90;;;;;;5037371;28;20472;-64
2021/01/31 01:35:09;;;;;;;1.13;0.70;;;-1.30;99.90;;;;;;5036733;28;20068;-63
2021/01/31 01:37:39;;;;;;;1.17;1.02;;;-1.30;99.90;;;;;;5038840;28;20037;-62
2021/01/31 01:40:14;;;;;;;1.27;1.05;;;-1.40;99.90;;;;;;5034723;28;20112;-63
2021/01/31 01:42:41;;;;;;;0.70;0.40;;;-1.40;99.90;;;;;;5038843;28;20597;-62
2021/01/31 01:45:08;;;;;;;1.08;1.05;;;-1.40;99.90;;;;;;5036244;28;20412;-62
2021/01/31 01:47:35;;;;;;;0.77;0.55;;;-1.50;99.90;;;;;;5035815;28;20096;-63
2021/01/31 01:50:11;;;;;;;0.95;0.60;;;-1.50;99.90;;;;;;5038717;28;20363;-62
2021/01/31 01:52:39;;;;;;;1.15;0.70;;;-1.40;99.90;;;;;;5033645;28;20053;-63
2021/01/31 01:55:12;;;;;;;0.80;0.65;;;-1.40;99.90;;;;;;5040133;28;20068;-62
2021/01/31 01:58:11;;;;;;;0.70;0.50;;;-1.50;99.90;;;;;;5034415;28;20084;-62
2021/01/31 02:00:37;;;;;;;0.80;0.52;;;-1.50;99.90;;;;;;5036468;28;20838;-64
2021/01/31 02:03:13;;;;;;;1.17;0.90;;;-1.50;99.90;;;;;;5034372;28;20037;-64
2021/01/31 02:05:45;;;;;;;0.70;0.70;;;-1.40;99.90;;;;;;5036895;28;20068;-61
2021/01/31 02:08:12;;;;;;;0.93;0.70;;;-1.40;99.90;;;;;;5032439;28;20044;-62
2021/01/31 02:10:38;;;;;;;2.13;1.23;;;-1.40;99.90;;;;;;5039488;28;20076;-62
2021/01/31 02:13:05;;;;;;;2.70;0.40;;;-1.40;99.90;;;;;;5034008;28;20041;-64
2021/01/31 02:15:32;;;;;;;1.55;0.98;;;-1.40;99.90;;;;;;5041213;28;20583;-62
2021/01/31 02:18:27;;;;;;;1.95;0.50;;;-1.40;99.90;;;;;;5033918;28;20169;-61
2021/01/31 02:21:36;;;;;;;3.58;0.60;;;-1.40;99.90;;;;;;5037126;28;20096;-62
2021/01/31 02:24:19;;;;;;;0.75;0.55;;;-1.40;99.90;;;;;;5029704;28;20485;-61
2021/01/31 02:27:07;;;;;;;2.42;0.52;;;-1.30;99.90;;;;;;5041401;28;20103;-61
2021/01/31 02:29:39;;;;;;;2.00;0.55;;;-1.30;99.90;;;;;;5035761;28;20071;-61
2021/01/31 02:32:29;;;;;;;0.90;0.50;;;-1.30;99.90;;;;;;5040567;28;20060;-62
2021/01/31 02:35:06;;;;;;;0.63;0.30;;;-1.30;99.90;;;;;;5033297;28;20115;-61
2021/01/31 02:37:51;;;;;;;1.55;0.30;;;-1.30;99.90;;;;;;5035279;28;20077;-61
2021/01/31 02:40:39;;;;;;;0.47;0.30;;;-1.30;99.90;;;;;;5028941;28;20507;-61
2021/01/31 02:43:10;;;;;;;3.20;0.50;;;-1.40;99.90;;;;;;5038067;28;20053;-61
2021/01/31 02:45:44;;;;;;;0.45;0.30;;;-1.40;99.90;;;;;;5032798;28;20135;-61
2021/01/31 02:48:19;;;;;;;0.77;0.43;;;-1.40;99.90;;;;;;5040431;28;20037;-61
2021/01/31 02:51:05;;;;;;;1.08;0.70;;;-1.40;99.90;;;;;;5035589;28;20048;-63
2021/01/31 02:53:38;;;;;;;0.75;0.40;;;-1.40;99.90;;;;;;5035605;28;20041;-63
2021/01/31 02:56:34;;;;;;;0.75;0.47;;;-1.40;99.90;;;;;;5032318;28;20520;-62
2021/01/31 02:59:07;;;;;;;1.10;0.50;;;-1.40;99.90;;;;;;5033203;28;20063;-61
2021/01/31 03:01:47;;;;;;;1.23;0.68;;;-1.30;99.90;;;;;;5026520;28;20064;-61
2021/01/31 03:04:30;;;;;;;1.63;0.90;;;-1.30;99.90;;;;;;5033326;28;20051;-63
2021/01/31 03:07:10;;;;;;;4.35;0.93;;;-1.30;99.90;;;;;;5037460;28;20151;-61
2021/01/31 03:09:48;;;;;;;0.50;0.50;;;-1.20;99.90;;;;;;5032898;28;20624;-61
2021/01/31 03:12:36;;;;;;;2.70;0.70;;;-1.20;99.90;;;;;;5035947;28;20055;-62
2021/01/31 03:15:09;;;;;;;0.90;0.30;;;-1.20;99.90;;;;;;5035737;28;20419;-63
2021/01/31 03:17:43;;;;;;;3.38;1.08;;;-1.20;99.90;;;;;;5039333;28;20428;-61
2021/01/31 03:20:19;;;;;;;1.13;0.40;;;-1.20;99.90;;;;;;5030562;28;20433;-64
2021/01/31 03:22:53;;;;;;;1.08;0.52;;;-1.20;99.90;;;;;;5026135;28;20053;-62
2021/01/31 03:25:26;;;;;;;1.02;0.40;;;-1.20;99.90;;;;;;5031158;28;20061;-62
2021/01/31 03:27:53;;;;;;;0.77;0.35;;;-1.10;99.90;;;;;;5040571;28;20049;-63
2021/01/31 03:30:19;;;;;;;0.50;0.30;;;-1.10;99.90;;;;;;5033401;28;20497;-64
2021/01/31 03:32:52;;;;;;;1.90;0.60;;;-1.10;99.90;;;;;;5038106;28;20049;-62
2021/01/31 03:35:44;;;;;;;2.65;1.45;;;-1.10;99.90;;;;;;5037633;28;20053;-62
2021/01/31 03:38:33;;;;;;;0.77;0.47;;;-1.10;99.90;;;;;;5044560;28;20059;-62
2021/01/31 03:41:04;;;;;;;0.60;0.30;;;-1.20;99.90;;;;;;5029284;28;20451;-62
2021/01/31 03:43:30;;;;;;;;;;;-1.10;99.90;;;;;;5036186;28;20670;-62
2021/01/31 03:46:05;;;;;;;1.00;0.40;;;-1.20;99.90;;;;;;5034298;28;20628;-62
2021/01/31 03:49:00;;;;;;;1.40;0.40;;;-1.20;99.90;;;;;;5037512;28;20099;-62
2021/01/31 03:51:29;;;;;;;1.10;0.55;;;-1.20;99.90;;;;;;5027700;28;20041;-63
2021/01/31 03:53:56;;;;;;;0.95;0.50;;;-1.30;99.90;;;;;;5034517;28;20068;-63
2021/01/31 03:56:33;;;;;;;0.80;0.50;;;-1.30;99.90;;;;;;5024805;28;20069;-62
2021/01/31 03:59:01;;;;;;;0.60;0.35;;;-1.30;99.90;;;;;;5033806;28;20049;-62
2021/01/31 04:01:28;;;;;;;0.47;0.30;;;-1.30;99.90;;;;;;5038764;28;20041;-62
2021/01/31 04:04:22;;;;;;;1.05;0.75;;;-1.40;99.90;;;;;;5034707;28;20041;-61
2021/01/31 04:06:50;;;;;;;4.00;1.27;;;-1.40;99.90;;;;;;5041997;28;20053;-62
2021/01/31 04:09:19;;;;;;;1.15;0.65;;;-1.30;99.90;;;;;;5032566;28;20049;-63
2021/01/31 04:11:46;;;;;;;3.25;0.52;;;-1.40;99.90;;;;;;5044762;28;20456;-62
2021/01/31 04:14:20;;;;;;;2.72;0.40;;;-1.40;99.90;;;;;;5034192;28;20155;-62
2021/01/31 04:16:49;;;;;;;1.95;0.40;;;-1.40;99.90;;;;;;5041081;28;20317;-61
2021/01/31 04:19:18;;;;;;;1.55;0.75;;;-1.40;99.90;;;;;;5035177;28;20046;-62
2021/01/31 04:21:44;;;;;;;1.08;0.65;;;-1.40;99.90;;;;;;5040089;28;20076;-62
2021/01/31 04:24:11;;;;;;;1.10;0.80;;;-1.30;99.90;;;;;;5040278;28;20045;-62
2021/01/31 04:26:39;;;;;;;0.93;0.70;;;-1.30;99.90;;;;;;5033455;28;20045;-64
2021/01/31 04:29:06;;;;;;;0.95;0.65;;;-1.40;99.90;;;;;;5039526;28;20064;-62
2021/01/31 04:31:33;;;;;;;1.92;1.05;;;-1.30;99.90;;;;;;5036317;28;20041;-62
2021/01/31 04:34:00;;;;;;;3.38;0.88;;;-1.40;99.90;;;;;;5039385;28;20048;-63
2021/01/31 04:36:27;;;;;;;1.08;0.98;;;-1.40;99.90;;;;;;5034592;28;20099;-61
2021/01/31 04:38:55;;;;;;;3.67;1.50;;;-1.30;99.90;;;;;;5041428;28;20048;-62
2021/01/31 04:41:23;;;;;;;16.52;1.10;;;-1.40;99.90;;;;;;5035402;28;20060;-63
2021/01/31 04:43:51;;;;;;;0.93;0.70;;;-1.40;99.90;;;;;;5037732;28;20047;-62
2021/01/31 04:46:21;;;;;;;2.00;0.75;;;-1.40;99.90;;;;;;5037047;28;20041;-65
2021/01/31 04:49:15;;;;;;;2.47;1.15;;;-1.40;99.90;;;;;;5037500;28;20045;-61
2021/01/31 04:52:20;;;;;;;1.05;0.70;;;-1.50;99.90;;;;;;5040077;28;20056;-61
2021/01/31 04:55:08;;;;;;;3.65;1.85;;;-1.50;99.90;;;;;;5039357;28;20057;-63
2021/01/31 04:57:51;;;;;;;2.50;1.10;;;-1.50;99.90;;;;;;5039053;28;20057;-63
2021/01/31 05:00:24;;;;;;;3.85;1.15;;;-1.50;99.90;;;;;;5035801;28;20053;-63
2021/01/31 05:03:02;;;;;;;2.03;0.70;;;-1.60;99.90;;;;;;5035824;28;20049;-64
2021/01/31 05:05:45;;;;;;;1.85;0.60;;;-1.60;99.90;;;;;;5036599;28;20485;-62
2021/01/31 05:08:21;;;;;;;0.45;0.43;;;-1.60;99.90;;;;;;5037148;28;20076;-62
2021/01/31 05:10:55;;;;;;;1.55;0.80;;;-1.60;99.90;;;;;;5033423;28;20142;-61
2021/01/31 05:13:41;;;;;;;2.58;0.82;;;-1.70;99.90;;;;;;5041236;28;20049;-65
2021/01/31 05:16:11;;;;;;;3.67;1.20;;;-1.70;99.90;;;;;;5037921;28;20411;-62
2021/01/31 05:18:46;;;;;;;5.40;1.02;;;-1.70;99.90;;;;;;5038655;28;20064;-63
2021/01/31 05:21:18;;;;;;;0.70;0.60;;;-1.70;99.90;;;;;;5034380;28;20067;-62
2021/01/31 05:23:59;;;;;;;0.93;0.70;;;-1.70;99.90;;;;;;5039642;28;20049;-62
2021/01/31 05:26:28;;;;;;;1.75;0.77;;;-1.80;99.90;;;;;;5030568;28;20094;-63
2021/01/31 05:29:01;;;;;;;0.67;0.67;;;-1.70;99.90;;;;;;5037622;28;20409;-63
2021/01/31 05:31:30;;;;;;;0.93;0.75;;;-1.70;99.90;;;;;;5030130;28;20064;-62
2021/01/31 05:33:59;;;;;;;2.30;0.67;;;-1.70;99.90;;;;;;5042013;28;20445;-63
2021/01/31 05:36:28;;;;;;;1.52;0.80;;;-1.70;99.90;;;;;;5036324;28;20306;-63
2021/01/31 05:38:56;;;;;;;1.77;0.90;;;-1.70;99.90;;;;;;5037053;28;20063;-63
2021/01/31 05:41:34;;;;;;;3.25;0.90;;;-1.70;99.90;;;;;;5032737;28;20137;-62
2021/01/31 05:44:16;;;;;;;0.70;0.70;;;-1.70;99.90;;;;;;5034361;28;20401;-62
2021/01/31 05:46:45;;;;;;;1.25;1.00;;;-1.70;99.90;;;;;;5039540;28;20061;-62
2021/01/31 05:49:38;;;;;;;1.15;0.75;;;-1.70;99.90;;;;;;5037543;28;20512;-62
2021/01/31 05:52:19;;;;;;;0.65;0.63;;;-1.70;99.90;;;;;;5040210;28;20536;-64
2021/01/31 05:54:48;;;;;;;3.10;0.80;;;-1.70;99.90;;;;;;5032653;28;20049;-62
2021/01/31 05:57:23;;;;;;;2.33;0.80;;;-1.70;99.90;;;;;;5039849;28;20068;-62
2021/01/31 05:59:50;;;;;;;1.70;1.02;;;-1.70;99.90;;;;;;5033969;28;20483;-62
2021/01/31 06:02:27;;;;;;;0.98;0.90;;;-1.70;99.90;;;;;;5041710;28;20103;-61
2021/01/31 06:05:20;;;;;;;1.20;0.80;;;-1.80;99.90;;;;;;5031045;28;20392;-64
2021/01/31 06:08:01;;;;;;;1.45;1.02;;;-1.70;99.90;;;;;;5041337;28;20044;-61
2021/01/31 06:10:30;;;;;;;2.55;1.35;;;-1.80;99.90;;;;;;5033339;28;20076;-62
2021/01/31 06:13:21;;;;;;;1.25;1.13;;;-1.80;99.90;;;;;;5040853;28;20044;-64
2021/01/31 06:15:55;;;;;;;1.45;1.00;;;-1.80;99.90;;;;;;5034646;28;20535;-62
2021/01/31 06:18:45;;;;;;;2.50;2.05;;;-1.80;99.90;;;;;;5036443;28;20131;-62
2021/01/31 06:21:17;;;;;;;2.63;2.40;;;-1.80;99.90;;;;;;5030423;28;20045;-63
2021/01/31 06:23:45;;;;;;;2.33;0.95;;;-1.80;99.90;;;;;;5040363;28;20098;-64
2021/01/31 06:26:24;;;;;;;2.55;1.17;;;-1.80;99.90;;;;;;5032014;28;20080;-62
2021/01/31 06:28:54;;;;;;;2.03;1.30;;;-1.80;99.90;;;;;;5037294;28;20099;-61
2021/01/31 06:31:41;;;;;;;2.10;1.30;;;-1.80;99.90;;;;;;5037508;28;20053;-62
2021/01/31 06:34:09;;;;;;;2.65;1.05;;;-1.80;99.90;;;;;;5039997;28;20469;-62
2021/01/31 06:37:15;;;;;;;0.82;0.82;;;-1.80;99.90;;;;;;5036932;28;20950;-61
2021/01/31 06:39:47;;;;;;;1.63;0.90;;;-1.90;99.90;;;;;;5034092;28;20455;-62
2021/01/31 06:42:22;;;;;;;1.50;0.98;;;-1.90;99.90;;;;;;5036282;28;20049;-62
2021/01/31 06:44:58;;;;;;;2.80;1.37;;;-1.90;99.90;;;;;;5035554;28;20040;-63
2021/01/31 06:48:02;;;;;;;1.65;1.52;;;-1.90;99.90;;;;;;5036801;28;20051;-62
2021/01/31 06:51:05;;;;;;;0.95;0.88;;;-1.90;99.90;;;;;;5032307;28;20041;-62
2021/01/31 06:54:07;;;;;;;3.38;1.48;;;-1.90;99.90;;;;;;5035244;28;20053;-62
2021/01/31 06:57:09;;;;;;;2.95;1.30;;;-1.90;99.90;;;;;;5039048;28;20079;-61
2021/01/31 07:00:17;;;;;;;1.73;1.45;;;-1.90;99.90;;;;;;5030261;28;20115;-61
2021/01/31 07:03:18;;;;;;;2.47;1.25;;;-1.90;99.90;;;;;;5035883;28;20049;-62
2021/01/31 07:06:03;;;;;;;3.05;1.30;;;-1.90;99.90;;;;;;5025505;28;20048;-62
2021/01/31 07:09:00;;;;;;;1.17;0.90;;;-1.80;99.90;;;;;;5037166;28;20063;-61
2021/01/31 07:11:36;;;;;;;1.88;1.77;;;-1.80;99.90;;;;;;5033286;28;20051;-62
2021/01/31 07:14:31;;;;;;;3.75;1.45;;;-1.80;99.90;;;;;;5039807;28;20461;-62
2021/01/31 07:17:01;;;;;;;2.00;0.95;;;-1.80;99.90;;;;;;5030174;28;20160;-62
2021/01/31 07:19:37;;;;;;;1.67;1.02;;;-1.80;99.90;;;;;;5041892;28;20063;-62
2021/01/31 07:22:45;;;;;;;4.50;1.05;;;-1.80;99.90;;;;;;5029059;28;20425;-62
2021/01/31 07:25:32;;;;;;;1.77;0.90;;;-1.80;99.90;;;;;;5040639;28;20037;-62
2021/01/31 07:28:13;;;;;;;2.40;0.70;;;-1.80;99.90;;;;;;5031479;28;20037;-62
2021/01/31 07:30:42;;;;;;;1.42;0.73;;;-1.70;99.90;;;;;;5039520;28;20069;-62
2021/01/31 07:33:14;;;;;;;4.38;0.55;;;-1.70;99.90;;;;;;5031574;28;20047;-64
2021/01/31 07:36:06;;;;;;;1.48;1.02;;;-1.70;99.90;;;;;;5037041;28;20056;-62
2021/01/31 07:38:46;;;;;;;2.00;1.30;;;-1.70;99.90;;;;;;5028545;28;20815;-62
2021/01/31 07:41:14;;;;;;;;;;;-1.60;99.90;;;;;;5045673;28;20060;-61
2021/01/31 07:43:42;;;;;;;2.08;0.90;;;-1.60;99.90;;;;;;5034350;28;19921;-62
2021/01/31 07:46:15;;;;;;;1.40;0.68;;;-1.60;99.90;;;;;;5045477;28;20061;-61
2021/01/31 07:48:51;;;;;;;0.88;0.65;;;-1.50;99.90;;;;;;5036634;28;20056;-62
2021/01/31 07:51:26;;;;;;;1.65;1.13;;;-1.50;99.90;;;;;;5041769;28;20356;-63
2021/01/31 07:53:57;;;;;;;1.33;0.70;;;-1.40;99.90;;;;;;5039594;28;20044;-62
2021/01/31 07:56:43;;;;;;;2.45;1.10;;;-1.40;99.90;;;;;;5038296;28;20078;-64
2021/01/31 07:59:09;;;;;;;1.33;0.80;;;-1.30;99.90;;;;;;5037282;28;20531;-62
2021/01/31 08:01:42;;;;;;;3.00;0.80;;;-1.30;99.90;;;;;;5038694;28;20115;-63
2021/01/31 08:04:17;;;;;;;1.17;0.90;;;-1.30;99.90;;;;;;5040938;28;20041;-62
2021/01/31 08:06:47;;;;;;;0.80;0.75;;;-1.30;99.90;;;;;;5034383;28;20038;-62
2021/01/31 08:09:25;;;;;;;3.93;1.47;;;-1.20;99.90;;;;;;5041646;28;20103;-62
2021/01/31 08:11:54;;;;;;;1.83;1.25;;;-1.20;99.90;;;;;;5036624;28;20318;-62
2021/01/31 08:14:58;;;;;;;1.27;0.70;;;-1.20;99.90;;;;;;5043262;28;20053;-62
2021/01/31 08:17:46;;;;;;;5.30;1.55;;;-1.20;99.90;;;;;;5037486;28;20044;-62
2021/01/31 08:20:28;;;;;;;3.42;1.13;;;-1.20;99.90;;;;;;5043450;28;20056;-62
2021/01/31 08:22:57;;;;;;;1.42;0.77;;;-1.20;99.90;;;;;;5035517;28;20057;-62
2021/01/31 08:25:26;;;;;;;0.77;0.73;;;-1.10;99.90;;;;;;5043897;28;20129;-62
2021/01/31 08:28:02;;;;;;;4.60;1.48;;;-1.10;99.90;;;;;;5035444;28;20086;-62
2021/01/31 08:30:37;;;;;;;2.60;0.77;;;-1.10;99.90;;;;;;5033536;28;20048;-62
2021/01/31 08:33:04;;;;;;;1.60;0.95;;;-1.10;99.90;;;;;;5033491;28;20500;-64
2021/01/31 08:35:46;;;;;;;3.78;0.80;;;-1.10;99.90;;;;;;5042748;28;20455;-62
2021/01/31 08:38:19;;;;;;;2.15;0.57;;;-1.00;99.90;;;;;;5036132;28;20579;-63
2021/01/31 08:41:01;;;;;;;1.20;0.73;;;-1.00;99.90;;;;;;5037452;28;20139;-62
2021/01/31 08:43:38;;;;;;;4.30;0.95;;;-0.90;99.90;;;;;;5038609;28;20725;-62
2021/01/31 08:46:21;;;;;;;1.85;1.15;;;-0.90;99.90;;;;;;5039674;28;20409;-62
2021/01/31 08:48:50;;;;;;;1.45;0.75;;;-0.90;99.90;;;;;;5035840;28;20127;-62
2021/01/31 08:51:17;;;;;;;3.80;0.77;;;-0.80;99.90;;;;;;5038085;28;20072;-62
2021/01/31 08:53:44;;;;;;;0.95;0.75;;;-0.80;99.90;;;;;;5041036;28;21176;-62
2021/01/31 08:56:24;;;;;;;2.45;0.70;;;-0.80;99.90;;;;;;5033017;28;20080;-62
2021/01/31 08:58:50;;;;;;;;;;;-0.80;99.90;;;;;;5041420;28;20056;-62
2021/01/31 09:01:17;;;;;;;3.45;0.90;;;-0.80;99.90;;;;;;5035798;28;19986;-62
2021/01/31 09:03:45;;;;;;;2.90;1.02;;;-0.80;99.90;;;;;;5039111;28;20432;-62
2021/01/31 09:06:12;;;;;;;1.48;0.90;;;-0.70;99.90;;;;;;5031954;28;20114;-62
2021/01/31 09:08:43;;;;;;;2.10;0.82;;;-0.70;99.90;;;;;;5039817;28;20045;-61
2021/01/31 09:11:17;;;;;;;3.80;0.73;;;-0.70;99.90;;;;;;5035246;28;20041;-62
2021/01/31 09:13:43;;;;;;;2.33;0.88;;;-0.70;99.90;;;;;;5037027;28;20053;-62
2021/01/31 09:16:17;;;;;;;3.28;1.15;;;-0.70;99.90;;;;;;5028665;28;20574;-62
2021/01/31 09:18:44;;;;;;;6.60;1.50;;;-0.70;99.90;;;;;;5036728;28;20136;-62
2021/01/31 09:21:31;;;;;;;0.82;0.52;;;-0.70;99.90;;;;;;5039980;28;20060;-61
2021/01/31 09:24:03;;;;;;;0.93;0.60;;;-0.60;99.90;;;;;;5033147;28;20231;-62
2021/01/31 09:26:30;;;;;;;0.80;0.60;;;-0.60;99.90;;;;;;5039253;28;20056;-62
2021/01/31 09:28:59;;;;;;;1.08;0.80;;;-0.60;99.90;;;;;;5035058;28;20481;-62
2021/01/31 09:31:29;;;;;;;0.68;0.50;;;-0.60;99.90;;;;;;5047332;28;20041;-62
2021/01/31 09:34:01;;;;;;;0.90;0.68;;;-0.60;99.90;;;;;;5032883;28;20156;-62
2021/01/31 09:36:36;;;;;;;2.17;0.80;;;-0.60;99.90;;;;;;5041206;28;20040;-62
2021/01/31 09:39:06;;;;;;;0.80;0.35;;;-0.60;99.90;;;;;;5032838;28;20050;-62
2021/01/31 09:41:33;;;;;;;;;;;-0.60;99.90;;;;;;5036813;28;20053;-62
2021/01/31 09:44:05;;;;;;;1.73;0.73;;;-0.60;99.90;;;;;;5031741;28;19925;-63
2021/01/31 09:46:33;;;;;;;11.77;1.50;;;-0.60;99.90;;;;;;5038332;28;20040;-62
2021/01/31 09:49:09;;;;;;;7.57;3.38;;;-0.60;99.90;;;;;;5037634;28;20072;-61
2021/01/31 09:51:36;;;;;;;1.85;0.70;;;-0.60;99.90;;;;;;5039251;28;20519;-62
2021/01/31 09:54:32;;;;;;;1.70;1.00;;;-0.50;99.90;;;;;;5038046;28;20040;-63
2021/01/31 09:57:27;;;;;;;2.67;0.65;;;-0.50;99.90;;;;;;5034442;28;20127;-63
2021/01/31 10:00:09;;;;;;;3.80;0.82;;;-0.50;99.90;;;;;;5033076;28;20049;-63
2021/01/31 10:02:40;;;;;;;3.55;0.50;;;-0.50;99.90;;;;;;5035842;28;20041;-62
2021/01/31 10:05:10;;;;;;;1.85;0.80;;;-0.40;99.90;;;;;;5038461;28;20103;-63
2021/01/31 10:07:46;;;;;;;;;;;-0.50;99.90;;;;;;5033421;28;20164;-62
2021/01/31 10:10:26;;;;;;;2.30;0.73;;;-0.50;99.90;;;;;;5036032;28;19924;-62
2021/01/31 10:13:18;;;;;;;6.30;0.80;;;-0.50;99.90;;;;;;5032814;28;20606;-62
2021/01/31 10:15:55;;;;;;;2.03;0.90;;;-0.50;99.90;;;;;;5040639;28;20099;-62
2021/01/31 10:18:31;;;;;;;1.00;0.90;;;-0.40;99.90;;;;;;5029852;28;20235;-63
2021/01/31 10:21:36;;;;;;;2.83;0.40;;;-0.50;99.90;;;;;;5040336;28;20501;-65
2021/01/31 10:24:05;;;;;;;1.58;0.70;;;-0.40;99.90;;;;;;5036080;28;20053;-62
2021/01/31 10:26:31;;;;;;;2.35;0.85;;;-0.40;99.90;;;;;;5039711;28;20068;-63
2021/01/31 10:29:04;;;;;;;5.55;0.80;;;-0.50;99.90;;;;;;5034097;28;20049;-62
2021/01/31 10:31:37;;;;;;;1.02;0.55;;;-0.50;99.90;;;;;;5049366;28;20068;-62
2021/01/31 10:34:06;;;;;;;0.95;0.40;;;-0.50;99.90;;;;;;5032900;28;20057;-62
2021/01/31 10:36:44;;;;;;;0.80;0.57;;;-0.50;99.90;;;;;;5036091;28;20051;-62
2021/01/31 10:39:14;;;;;;;3.00;0.68;;;-0.50;99.90;;;;;;5034734;28;20057;-62
2021/01/31 10:41:42;;;;;;;1.88;0.70;;;-0.50;99.90;;;;;;5040259;28;20041;-64
2021/01/31 10:44:19;;;;;;;0.77;0.40;;;-0.50;99.90;;;;;;5036150;28;20072;-62
2021/01/31 10:46:46;;;;;;;0.43;0.30;;;-0.50;99.90;;;;;;5034813;28;20083;-63
2021/01/31 10:49:13;;;;;;;3.00;0.60;;;-0.50;99.90;;;;;;5034263;28;20083;-62
2021/01/31 10:51:43;;;;;;;1.15;0.50;;;-0.50;99.90;;;;;;5031568;28;20052;-64
2021/01/31 10:54:09;;;;;;;0.88;0.73;;;-0.60;99.90;;;;;;5040273;28;20582;-62
2021/01/31 10:56:36;;;;;;;2.58;0.82;;;-0.60;99.90;;;;;;5032597;28;20098;-62
2021/01/31 10:59:02;;;;;;;2.38;0.68;;;-0.60;99.90;;;;;;5041044;28;20520;-64
2021/01/31 11:01:29;;;;;;;1.58;0.80;;;-0.60;99.90;;;;;;5030613;28;20045;-65
2021/01/31 11:03:56;;;;;;;1.75;0.40;;;-0.50;99.90;;;;;;5039224;28;20053;-64
2021/01/31 11:06:23;;;;;;;2.22;0.82;;;-0.50;99.90;;;;;;5032907;28;20041;-62
2021/01/31 11:08:50;;;;;;;1.50;1.27;;;-0.40;99.90;;;;;;5032607;28;20051;-62
2021/01/31 11:11:19;;;;;;;2.78;0.80;;;-0.30;99.90;;;;;;5038713;28;20049;-63
2021/01/31 11:13:46;;;;;;;1.05;0.60;;;-0.20;99.90;;;;;;5039644;28;20093;-62
2021/01/31 11:16:13;;;;;;;3.17;1.25;;;-0.20;99.90;;;;;;5046445;28;20053;-63
2021/01/31 11:18:39;;;;;;;2.45;1.15;;;-0.10;99.90;;;;;;5040217;28;20129;-62
2021/01/31 11:21:06;;;;;;;1.08;0.52;;;-0.10;99.90;;;;;;5041103;28;20045;-62
2021/01/31 11:23:33;;;;;;;3.40;0.65;;;0.00;99.90;;;;;;5037552;28;20045;-62
2021/01/31 11:25:59;;;;;;;1.30;1.02;;;0.00;99.90;;;;;;5045558;28;20044;-62
2021/01/31 11:28:26;;;;;;;4.68;1.00;;;0.10;99.90;;;;;;5034955;28;20419;-62
2021/01/31 11:30:52;;;;;;;3.30;1.10;;;0.10;99.90;;;;;;5048836;28;20063;-63
2021/01/31 11:33:19;;;;;;;0.73;0.63;;;0.30;99.90;;;;;;5039191;28;20407;-62
2021/01/31 11:35:45;;;;;;;1.25;0.52;;;0.20;99.90;;;;;;5042748;28;20080;-62
2021/01/31 11:38:11;;;;;;;1.23;0.80;;;0.20;99.90;;;;;;5044683;28;20146;-62
2021/01/31 11:40:38;;;;;;;1.75;0.75;;;0.20;99.90;;;;;;5040141;28;20045;-62
2021/01/31 11:43:04;;;;;;;0.38;0.38;;;0.20;99.90;;;;;;5045896;28;20045;-62
2021/01/31 11:45:31;;;;;;;0.60;0.50;;;0.20;99.90;;;;;;5033459;28;20053;-63
2021/01/31 11:47:58;;;;;;;1.08;0.68;;;0.20;99.90;;;;;;5044107;28;20052;-64
2021/01/31 11:50:25;;;;;;;0.75;0.50;;;0.20;99.90;;;;;;5038036;28;20126;-63
2021/01/31 11:52:52;;;;;;;1.20;0.80;;;0.10;99.90;;;;;;5045317;28;20159;-63
2021/01/31 11:55:18;;;;;;;0.93;0.70;;;0.10;99.90;;;;;;5041443;28;20520;-62
2021/01/31 11:57:45;;;;;;;0.40;0.35;;;0.10;99.90;;;;;;5043139;28;20049;-65
2021/01/31 12:00:14;;;;;;;1.48;0.82;;;0.20;99.90;;;;;;5043073;28;20045;-65
2021/01/31 12:02:41;;;;;;;1.60;0.70;;;0.20;99.90;;;;;;5042505;28;20099;-62
2021/01/31 12:05:13;;;;;;;1.10;0.73;;;0.10;99.90;;;;;;5044970;28;20360;-63
2021/01/31 12:07:40;;;;;;;0.73;0.60;;;0.20;99.90;;;;;;5040285;28;20068;-63
2021/01/31 12:10:09;;;;;;;2.42;0.55;;;0.20;99.90;;;;;;5046526;28;20049;-62
2021/01/31 12:12:35;;;;;;;1.33;0.45;;;0.30;99.90;;;;;;5035375;28;20133;-62
2021/01/31 12:15:06;;;;;;;1.02;0.80;;;0.40;99.90;;;;;;5040395;28;20124;-63
2021/01/31 12:17:32;;;;;;;1.05;0.75;;;0.30;99.90;;;;;;5039376;28;20139;-63
2021/01/31 12:20:00;;;;;;;1.23;0.73;;;0.40;99.90;;;;;;5041859;28;20694;-63
2021/01/31 12:22:26;;;;;;;1.58;0.95;;;0.40;99.90;;;;;;5038440;28;20233;-63
2021/01/31 12:24:53;;;;;;;1.95;1.13;;;0.40;99.90;;;;;;5041959;28;20198;-62
2021/01/31 12:27:21;;;;;;;3.40;0.82;;;0.30;99.90;;;;;;5042883;28;20060;-62
2021/01/31 12:29:50;;;;;;;2.63;1.05;;;0.30;99.90;;;;;;5035740;28;20063;-63
2021/01/31 12:32:17;;;;;;;1.33;1.00;;;0.20;99.90;;;;;;5042472;28;20408;-63
2021/01/31 12:34:44;;;;;;;0.60;0.47;;;0.10;99.90;;;;;;5036371;28;20057;-63
2021/01/31 12:37:11;;;;;;;1.38;0.70;;;0.00;99.90;;;;;;5042910;28;20052;-62
2021/01/31 12:39:37;;;;;;;2.47;1.52;;;-0.10;99.90;;;;;;5036776;28;20144;-62
2021/01/31 12:42:04;;;;;;;1.30;1.02;;;-0.10;99.90;;;;;;5039060;28;20053;-63
2021/01/31 12:44:31;;;;;;;3.38;1.23;;;-0.10;99.90;;;;;;5037495;28;20053;-62
2021/01/31 12:46:57;;;;;;;1.27;0.75;;;-0.20;99.90;;;;;;5034874;28;20832;-64
2021/01/31 12:49:23;;;;;;;1.33;0.80;;;-0.20;99.90;;;;;;5042147;28;20044;-63
2021/01/31 12:51:50;;;;;;;1.20;1.00;;;-0.20;99.90;;;;;;5039885;28;20604;-62
2021/01/31 12:54:17;;;;;;;1.30;0.70;;;-0.30;99.90;;;;;;5037243;28;20045;-63
2021/01/31 12:56:44;;;;;;;2.25;1.10;;;-0.30;99.90;;;;;;5038124;28;20128;-63
2021/01/31 12:59:10;;;;;;;1.50;0.90;;;-0.30;99.90;;;;;;5041670;28;20045;-64
2021/01/31 13:01:37;;;;;;;1.13;1.02;;;-0.40;99.90;;;;;;5032815;28;20041;-63
2021/01/31 13:04:04;;;;;;;1.08;0.90;;;-0.40;99.90;;;;;;5040620;28;20516;-63
2021/01/31 13:06:30;;;;;;;0.68;0.68;;;-0.40;99.90;;;;;;5032791;28;20348;-63
2021/01/31 13:08:57;;;;;;;1.65;0.88;;;-0.40;99.90;;;;;;5042125;28;20055;-64
2021/01/31 13:11:23;;;;;;;1.08;0.70;;;-0.40;99.90;;;;;;5036291;28;20152;-63
2021/01/31 13:13:49;;;;;;;2.15;0.80;;;-0.30;99.90;;;;;;5039831;28;20103;-63
2021/01/31 13:16:16;;;;;;;0.70;0.60;;;-0.20;99.90;;;;;;5036136;28;20041;-62
2021/01/31 13:18:44;;;;;;;1.05;0.82;;;-0.20;99.90;;;;;;5038188;28;20576;-62
2021/01/31 13:21:12;;;;;;;1.17;1.05;;;-0.20;99.90;;;;;;5037854;28;20045;-64